createdAt,value
2019-05-14T00:00:00.698Z,6.40
2019-05-14T00:02:27.889Z,6.30
2019-05-14T00:04:55.080Z,6.30
2019-05-14T00:07:22.514Z,6.20
2019-05-14T00:09:51.749Z,6.20
2019-05-14T00:12:18.916Z,6.10
2019-05-14T00:14:46.100Z,6.10
2019-05-14T00:17:13.288Z,6.10
2019-05-14T00:19:41.706Z,5.90
2019-05-14T00:22:11.313Z,6.00
2019-05-14T00:24:38.385Z,6.00
2019-05-14T00:27:05.586Z,6.00
2019-05-14T00:29:32.772Z,6.00
2019-05-14T00:32:01.950Z,5.80
2019-05-14T00:34:31.402Z,5.80
2019-05-14T00:36:58.166Z,5.80
2019-05-14T00:39:25.361Z,5.80
2019-05-14T00:41:52.584Z,5.70
2019-05-14T00:44:21.529Z,5.60
2019-05-14T00:46:48.852Z,5.60
2019-05-14T00:49:16.049Z,5.50
2019-05-14T00:51:43.256Z,5.50
2019-05-14T00:54:11.135Z,5.40
2019-05-14T00:56:38.889Z,5.40
2019-05-14T00:59:06.061Z,5.40
2019-05-14T01:01:33.248Z,5.40
2019-05-14T01:04:01.275Z,5.50
2019-05-14T01:06:31.543Z,5.30
2019-05-14T01:09:01.349Z,5.20
2019-05-14T01:11:31.508Z,5.30
2019-05-14T01:14:01.682Z,5.30
2019-05-14T01:16:31.567Z,5.30
2019-05-14T01:18:59.008Z,5.20
2019-05-14T01:21:26.184Z,5.10
2019-05-14T01:23:53.383Z,5.10
2019-05-14T01:26:21.820Z,5.10
2019-05-14T01:28:51.198Z,5.10
2019-05-14T01:31:18.301Z,5.00
2019-05-14T01:33:45.509Z,4.90
2019-05-14T01:36:12.719Z,4.80
2019-05-14T01:38:41.894Z,4.80
2019-05-14T01:41:09.080Z,4.70
2019-05-14T01:43:36.292Z,4.70
2019-05-14T01:46:04.202Z,4.70
2019-05-14T01:48:31.462Z,4.70
2019-05-14T01:51:01.308Z,4.70
2019-05-14T01:53:27.968Z,4.60
2019-05-14T01:55:55.156Z,4.70
2019-05-14T01:58:22.464Z,4.70
2019-05-14T02:00:52.082Z,4.70
2019-05-14T02:03:18.873Z,4.70
2019-05-14T02:05:46.082Z,4.80
2019-05-14T02:08:13.292Z,4.80
2019-05-14T02:10:41.990Z,4.70
2019-05-14T02:13:09.536Z,4.70
2019-05-14T02:15:39.921Z,4.70
2019-05-14T02:18:05.925Z,4.60
2019-05-14T02:20:33.116Z,4.60
2019-05-14T02:23:01.563Z,4.70
2019-05-14T02:25:29.104Z,4.60
2019-05-14T02:27:56.293Z,4.70
2019-05-14T02:30:32.371Z,4.60
2019-05-14T02:32:52.591Z,4.60
2019-05-14T02:35:20.291Z,4.60
2019-05-14T02:37:50.389Z,4.60
2019-05-14T02:40:20.162Z,4.60
2019-05-14T02:42:49.790Z,4.50
2019-05-14T02:45:19.644Z,4.40
2019-05-14T02:47:45.905Z,4.40
2019-05-14T02:50:13.494Z,4.40
2019-05-14T02:52:40.830Z,4.40
2019-05-14T02:55:09.379Z,4.40
2019-05-14T02:57:39.420Z,4.20
2019-05-14T03:00:09.788Z,4.30
2019-05-14T03:02:35.773Z,4.20
2019-05-14T03:05:03.791Z,4.20
2019-05-14T03:07:31.088Z,4.10
2019-05-14T03:09:59.369Z,4.10
2019-05-14T03:12:29.991Z,4.00
2019-05-14T03:14:58.731Z,3.90
2019-05-14T03:17:24.989Z,3.80
2019-05-14T03:19:52.205Z,3.80
2019-05-14T03:22:26.916Z,3.80
2019-05-14T03:24:50.236Z,3.80
2019-05-14T03:27:19.368Z,3.70
2019-05-14T03:29:49.558Z,3.60
2019-05-14T03:32:21.798Z,3.50
2019-05-14T03:34:45.206Z,3.40
2019-05-14T03:37:14.174Z,3.50
2019-05-14T03:39:41.880Z,3.60
2019-05-14T03:42:09.681Z,3.60
2019-05-14T03:44:39.881Z,3.60
2019-05-14T03:47:09.984Z,3.60
2019-05-14T03:49:35.357Z,3.60
2019-05-14T03:52:02.664Z,3.50
2019-05-14T03:54:30.203Z,3.60
2019-05-14T03:57:00.316Z,3.60
2019-05-14T03:59:29.124Z,3.70
2019-05-14T04:01:59.385Z,3.80
2019-05-14T04:04:25.629Z,3.80
2019-05-14T04:06:53.919Z,3.80
2019-05-14T04:09:23.286Z,3.70
2019-05-14T04:14:33.022Z,3.50
2019-05-14T04:17:09.778Z,3.60
2019-05-14T04:19:32.418Z,3.80
2019-05-14T04:22:01.553Z,3.80
2019-05-14T04:24:30.408Z,3.90
2019-05-14T04:27:07.356Z,4.00
2019-05-14T04:29:30.822Z,4.10
2019-05-14T04:32:00.196Z,4.30
2019-05-14T04:34:30.063Z,4.30
2019-05-14T04:36:59.285Z,4.40
2019-05-14T04:39:30.435Z,4.50
2019-05-14T04:41:56.053Z,4.50
2019-05-14T04:44:23.362Z,4.50
2019-05-14T04:46:50.571Z,4.50
2019-05-14T04:49:19.908Z,4.80
2019-05-14T04:51:50.202Z,5.00
2019-05-14T04:54:19.235Z,4.90
2019-05-14T04:56:45.455Z,5.00
2019-05-14T04:59:12.771Z,5.10
2019-05-14T05:01:40.364Z,5.10
2019-05-14T05:04:09.538Z,5.20
2019-05-14T05:06:39.650Z,5.40
2019-05-14T05:09:09.336Z,5.50
2019-05-14T05:11:39.082Z,5.40
2019-05-14T05:14:08.456Z,5.50
2019-05-14T05:16:34.624Z,5.70
2019-05-14T05:19:01.961Z,5.90
2019-05-14T05:21:29.272Z,6.20
2019-05-14T05:23:58.473Z,6.40
2019-05-14T05:26:25.664Z,6.70
2019-05-14T05:29:05.637Z,6.80
2019-05-14T05:31:22.040Z,7.30
2019-05-14T05:33:49.309Z,7.60
2019-05-14T05:36:18.491Z,8.00
2019-05-14T05:38:48.719Z,8.80
2019-05-14T05:41:14.865Z,9.60
2019-05-14T05:43:42.080Z,9.90
2019-05-14T05:46:09.292Z,10.30
2019-05-14T05:48:38.640Z,11.10
2019-05-14T05:51:05.716Z,11.70
2019-05-14T05:53:32.916Z,12.20
2019-05-14T05:56:00.149Z,12.60
2019-05-14T05:58:29.838Z,12.80
2019-05-14T06:00:59.156Z,13.00
2019-05-14T06:03:29.651Z,13.30
2019-05-14T06:05:55.056Z,13.00
2019-05-14T06:08:22.255Z,12.20
2019-05-14T06:10:49.440Z,11.90
2019-05-14T06:13:18.289Z,11.70
2019-05-14T06:15:49.408Z,11.90
2019-05-14T06:18:18.286Z,12.40
2019-05-14T06:20:43.852Z,12.60
2019-05-14T06:23:11.056Z,12.30
2019-05-14T06:25:40.103Z,12.20
2019-05-14T06:28:08.644Z,11.90
2019-05-14T06:30:39.586Z,11.80
2019-05-14T06:33:09.036Z,11.60
2019-05-14T06:35:35.703Z,11.60
2019-05-14T06:38:03.350Z,11.70
2019-05-14T06:40:30.557Z,11.60
2019-05-14T06:42:59.132Z,11.40
2019-05-14T06:45:29.031Z,11.30
2019-05-14T06:47:55.701Z,11.50
2019-05-14T06:50:23.009Z,11.70
2019-05-14T06:52:50.325Z,11.80
2019-05-14T06:55:18.064Z,11.60
2019-05-14T06:57:47.988Z,11.60
2019-05-14T07:00:15.913Z,11.40
2019-05-14T07:02:44.272Z,11.40
2019-05-14T07:05:11.844Z,11.30
2019-05-14T07:07:40.419Z,11.30
2019-05-14T07:10:09.095Z,11.10
2019-05-14T07:12:38.520Z,11.10
2019-05-14T07:15:09.043Z,11.00
2019-05-14T07:17:38.150Z,11.00
2019-05-14T07:20:08.682Z,11.00
2019-05-14T07:22:35.517Z,11.20
2019-05-14T07:25:03.262Z,11.30
2019-05-14T07:27:30.460Z,11.40
2019-05-14T07:29:58.313Z,11.70
2019-05-14T07:32:28.530Z,12.10
2019-05-14T07:34:54.897Z,12.00
2019-05-14T07:37:22.084Z,12.10
2019-05-14T07:39:49.296Z,12.10
2019-05-14T07:42:18.361Z,12.00
2019-05-14T07:44:45.724Z,11.90
2019-05-14T07:47:12.945Z,11.90
2019-05-14T07:49:40.217Z,11.60
2019-05-14T07:52:09.440Z,11.50
2019-05-14T07:54:38.742Z,11.70
2019-05-14T07:57:05.660Z,11.80
2019-05-14T07:59:32.918Z,11.80
2019-05-14T08:02:00.145Z,11.80
2019-05-14T08:04:29.013Z,11.90
2019-05-14T08:06:58.225Z,11.80
2019-05-14T08:09:28.007Z,12.40
2019-05-14T08:11:54.705Z,12.50
2019-05-14T08:14:21.937Z,12.10
2019-05-14T08:16:49.176Z,12.00
2019-05-14T08:19:24.358Z,12.00
2019-05-14T08:21:47.975Z,12.00
2019-05-14T08:24:15.410Z,11.90
2019-05-14T08:26:44.249Z,11.50
2019-05-14T08:29:11.638Z,11.40
2019-05-14T08:31:38.925Z,11.40
2019-05-14T08:34:08.915Z,11.60
2019-05-14T08:36:35.264Z,11.70
2019-05-14T08:39:04.145Z,11.80
2019-05-14T08:41:31.406Z,12.00
2019-05-14T08:43:59.517Z,11.90
2019-05-14T08:46:28.385Z,11.70
2019-05-14T08:48:58.400Z,11.30
2019-05-14T08:51:24.879Z,11.30
2019-05-14T08:53:52.071Z,11.60
2019-05-14T08:56:19.440Z,11.80
2019-05-14T08:58:49.166Z,12.00
2019-05-14T09:01:15.871Z,11.90
2019-05-14T09:03:43.289Z,11.80
2019-05-14T09:06:10.508Z,11.60
2019-05-14T09:08:38.950Z,11.60
2019-05-14T09:11:09.491Z,11.80
2019-05-14T09:13:38.108Z,12.00
2019-05-14T09:16:04.941Z,12.10
2019-05-14T09:18:32.128Z,12.20
2019-05-14T09:20:59.477Z,11.90
2019-05-14T09:23:28.622Z,11.90
2019-05-14T09:25:58.574Z,11.60
2019-05-14T09:28:25.119Z,11.30
2019-05-14T09:30:52.432Z,11.20
2019-05-14T09:33:23.616Z,11.30
2019-05-14T09:35:49.442Z,11.60
2019-05-14T09:38:18.790Z,11.80
2019-05-14T09:40:48.692Z,11.90
2019-05-14T09:43:15.073Z,11.90
2019-05-14T09:45:42.261Z,12.10
2019-05-14T09:48:09.461Z,11.80
2019-05-14T09:50:38.371Z,11.90
2019-05-14T09:53:05.834Z,11.70
2019-05-14T09:55:33.144Z,11.70
2019-05-14T09:58:00.334Z,11.50
2019-05-14T10:00:27.528Z,11.30
2019-05-14T10:02:54.724Z,11.20
2019-05-14T10:05:21.929Z,11.50
2019-05-14T10:07:49.525Z,11.60
2019-05-14T10:10:19.621Z,11.50
2019-05-14T10:12:53.920Z,11.40
2019-05-14T10:15:15.244Z,11.50
2019-05-14T10:17:42.457Z,11.70
2019-05-14T10:20:09.859Z,11.90
2019-05-14T10:22:39.506Z,11.90
2019-05-14T10:25:08.871Z,12.30
2019-05-14T10:27:35.691Z,12.40
2019-05-14T10:30:05.145Z,12.20
2019-05-14T10:32:32.396Z,12.40
2019-05-14T10:34:59.692Z,12.70
2019-05-14T10:37:28.826Z,12.80
2019-05-14T10:39:58.423Z,12.90
2019-05-14T10:42:25.260Z,12.40
2019-05-14T10:44:52.582Z,12.30
2019-05-14T10:47:19.794Z,12.00
2019-05-14T10:49:47.003Z,11.90
2019-05-14T10:52:14.318Z,11.70
2019-05-14T10:54:55.061Z,11.70
2019-05-14T10:57:10.621Z,12.00
2019-05-14T10:59:37.801Z,12.30
2019-05-14T11:02:05.080Z,12.80
2019-05-14T11:04:34.463Z,12.70
2019-05-14T11:07:01.386Z,12.40
2019-05-14T11:09:28.709Z,11.90
2019-05-14T11:11:58.216Z,11.30
2019-05-14T11:14:25.362Z,10.80
2019-05-14T11:16:52.638Z,10.40
2019-05-14T11:19:19.848Z,10.50
2019-05-14T11:21:48.418Z,10.70
2019-05-14T11:24:18.617Z,10.80
2019-05-14T11:26:44.918Z,11.00
2019-05-14T11:29:12.115Z,11.30
2019-05-14T11:31:39.394Z,11.50
2019-05-14T11:34:08.258Z,11.50
2019-05-14T11:36:35.867Z,11.60
2019-05-14T11:39:05.465Z,12.00
2019-05-14T11:41:32.638Z,12.20
2019-05-14T11:43:59.829Z,12.20
2019-05-14T11:46:41.927Z,12.50
2019-05-14T11:48:59.204Z,12.60
2019-05-14T11:51:57.929Z,11.80
2019-05-14T11:53:54.406Z,10.90
2019-05-14T11:56:21.604Z,10.30
2019-05-14T11:58:48.789Z,10.00
2019-05-14T12:01:18.605Z,10.10
2019-05-14T12:03:45.189Z,10.30
2019-05-14T12:06:12.461Z,10.50
2019-05-14T12:08:41.927Z,10.60
2019-05-14T12:11:08.849Z,10.80
2019-05-14T12:13:39.176Z,10.90
2019-05-14T12:16:05.289Z,11.20
2019-05-14T12:18:32.465Z,11.70
2019-05-14T12:20:59.682Z,12.20
2019-05-14T12:23:26.865Z,12.60
2019-05-14T12:25:54.137Z,12.90
2019-05-14T12:28:21.421Z,13.20
2019-05-14T12:30:49.095Z,13.10
2019-05-14T12:33:19.359Z,13.00
2019-05-14T12:35:45.581Z,12.90
2019-05-14T12:38:12.784Z,12.60
2019-05-14T12:40:40.006Z,12.30
2019-05-14T12:43:09.600Z,12.00
2019-05-14T12:45:39.083Z,11.40
2019-05-14T12:48:05.388Z,11.00
2019-05-14T12:50:32.579Z,11.00
2019-05-14T12:52:59.776Z,11.20
2019-05-14T12:55:28.588Z,11.40
2019-05-14T12:57:59.455Z,11.50
2019-05-14T13:00:25.260Z,11.70
2019-05-14T13:02:52.445Z,11.80
2019-05-14T13:05:19.641Z,12.00
2019-05-14T13:07:50.847Z,12.10
2019-05-14T13:10:18.607Z,12.00
2019-05-14T13:12:45.105Z,12.20
2019-05-14T13:15:12.609Z,12.50
2019-05-14T13:17:39.794Z,12.60
2019-05-14T13:20:13.177Z,12.50
2019-05-14T13:22:45.373Z,12.10
2019-05-14T13:25:09.061Z,11.50
2019-05-14T13:27:35.218Z,11.10
2019-05-14T13:30:03.002Z,11.10
2019-05-14T13:32:30.181Z,11.10
2019-05-14T13:34:59.181Z,11.10
2019-05-14T13:37:28.702Z,11.00
2019-05-14T13:39:55.576Z,11.00
2019-05-14T13:42:22.801Z,10.90
2019-05-14T13:44:50.085Z,10.50
2019-05-14T13:47:18.254Z,10.20
2019-05-14T13:49:48.490Z,10.20
2019-05-14T13:52:14.759Z,10.10
2019-05-14T13:54:41.960Z,10.20
2019-05-14T13:57:12.082Z,10.40
2019-05-14T13:59:44.017Z,10.30
2019-05-14T14:02:09.804Z,10.40
2019-05-14T14:04:38.192Z,10.40
2019-05-14T14:07:08.804Z,10.40
2019-05-14T14:09:34.797Z,10.50
2019-05-14T14:12:02.006Z,10.60
2019-05-14T14:14:29.376Z,10.90
2019-05-14T14:16:58.312Z,11.30
2019-05-14T14:19:28.048Z,11.60
2019-05-14T14:21:54.870Z,11.70
2019-05-14T14:24:22.075Z,11.90
2019-05-14T14:26:49.377Z,11.90
2019-05-14T14:29:18.641Z,11.90
2019-05-14T14:31:45.665Z,12.00
2019-05-14T14:34:12.928Z,11.70
2019-05-14T14:36:40.172Z,11.50
2019-05-14T14:39:09.752Z,11.60
2019-05-14T14:41:38.458Z,11.90
2019-05-14T14:44:08.561Z,12.10
2019-05-14T14:46:34.704Z,12.40
2019-05-14T14:49:02.807Z,12.60
2019-05-14T14:51:30.223Z,12.70
2019-05-14T14:54:02.822Z,12.80
2019-05-14T14:56:28.408Z,12.80
2019-05-14T14:58:56.209Z,12.60
2019-05-14T15:01:23.578Z,12.50
2019-05-14T15:03:51.289Z,12.40
2019-05-14T15:06:18.690Z,12.30
2019-05-14T15:08:45.970Z,12.20
2019-05-14T15:11:13.166Z,11.90
2019-05-14T15:13:40.356Z,11.50
2019-05-14T15:16:13.299Z,11.20
2019-05-14T15:18:38.692Z,10.90
2019-05-14T15:21:05.842Z,10.60
2019-05-14T15:23:33.138Z,10.50
2019-05-14T15:26:00.353Z,10.50
2019-05-14T15:28:27.571Z,10.70
2019-05-14T15:30:54.777Z,10.90
2019-05-14T15:33:21.977Z,11.00
2019-05-14T15:35:49.271Z,11.00
2019-05-14T15:38:16.570Z,11.00
2019-05-14T15:40:43.766Z,11.10
2019-05-14T15:43:10.973Z,11.20
2019-05-14T15:45:38.176Z,11.20
2019-05-14T15:48:05.392Z,11.10
2019-05-14T15:50:32.952Z,11.10
2019-05-14T15:53:00.309Z,11.00
2019-05-14T15:55:28.868Z,11.00
2019-05-14T15:57:58.929Z,10.90
2019-05-14T16:00:25.493Z,10.50
2019-05-14T16:02:52.784Z,10.40
2019-05-14T16:05:19.990Z,10.40
2019-05-14T16:07:49.436Z,10.50
2019-05-14T16:10:16.580Z,10.50
2019-05-14T16:12:43.764Z,10.60
2019-05-14T16:15:11.441Z,10.60
2019-05-14T16:17:48.668Z,10.60
2019-05-14T16:20:09.008Z,10.60
2019-05-14T16:22:39.825Z,10.50
2019-05-14T16:25:08.633Z,10.50
2019-05-14T16:27:35.290Z,10.50
2019-05-14T16:30:03.005Z,10.30
2019-05-14T16:32:30.197Z,9.90
2019-05-14T16:34:58.072Z,9.80
2019-05-14T16:37:25.509Z,9.90
2019-05-14T16:39:52.686Z,9.80
2019-05-14T16:42:20.713Z,9.70
2019-05-14T16:44:48.269Z,9.60
2019-05-14T16:47:15.447Z,9.50
2019-05-14T16:49:42.640Z,9.40
2019-05-14T16:52:09.817Z,9.40
2019-05-14T16:54:39.260Z,9.50
2019-05-14T16:57:10.672Z,9.50
2019-05-14T16:59:35.329Z,9.50
2019-05-14T17:02:02.853Z,9.60
2019-05-14T17:04:30.044Z,9.50
2019-05-14T17:06:58.931Z,9.50
2019-05-14T17:09:28.272Z,9.50
2019-05-14T17:11:55.436Z,9.50
2019-05-14T17:14:22.642Z,9.30
2019-05-14T17:16:49.841Z,9.10
2019-05-14T17:19:18.744Z,9.00
2019-05-14T17:21:48.537Z,9.10
2019-05-14T17:24:15.320Z,9.20
2019-05-14T17:26:42.508Z,9.10
2019-05-14T17:29:09.709Z,9.20
2019-05-14T17:31:39.068Z,9.20
2019-05-14T17:34:08.619Z,9.10
2019-05-14T17:36:35.353Z,9.10
2019-05-14T17:39:03.958Z,8.90
2019-05-14T17:41:31.148Z,8.80
2019-05-14T17:43:58.658Z,8.80
2019-05-14T17:46:26.060Z,8.80
2019-05-14T17:48:53.260Z,8.70
2019-05-14T17:51:20.446Z,8.80
2019-05-14T17:53:48.052Z,8.80
2019-05-14T17:56:15.552Z,8.70
2019-05-14T17:58:42.755Z,8.70
2019-05-14T18:01:10.141Z,8.70
2019-05-14T18:03:39.881Z,8.70
2019-05-14T18:06:09.027Z,8.70
2019-05-14T18:08:35.635Z,8.60
2019-05-14T18:11:02.858Z,8.70
2019-05-14T18:13:30.226Z,8.60
2019-05-14T18:15:58.082Z,8.60
2019-05-14T18:18:25.438Z,8.50
2019-05-14T18:20:52.649Z,8.50
2019-05-14T18:23:19.933Z,8.60
2019-05-14T18:26:01.021Z,8.50
2019-05-14T18:28:17.989Z,8.60
2019-05-14T18:30:45.296Z,8.60
2019-05-14T18:33:12.865Z,8.50
2019-05-14T18:35:45.479Z,8.70
2019-05-14T18:38:09.525Z,8.60
2019-05-14T18:40:36.797Z,8.60
2019-05-14T18:43:04.104Z,8.60
2019-05-14T18:45:31.416Z,8.50
2019-05-14T18:47:59.147Z,8.50
2019-05-14T18:50:28.815Z,8.60
2019-05-14T18:52:55.709Z,8.50
2019-05-14T18:55:22.917Z,8.60
2019-05-14T18:57:50.226Z,8.70
2019-05-14T19:00:18.586Z,8.70
2019-05-14T19:02:48.066Z,8.70
2019-05-14T19:05:15.345Z,8.60
2019-05-14T19:07:42.529Z,8.50
2019-05-14T19:10:09.713Z,8.50
2019-05-14T19:12:38.806Z,8.50
2019-05-14T19:15:08.705Z,8.40
2019-05-14T19:17:38.471Z,8.60
2019-05-14T19:20:08.300Z,8.50
2019-05-14T19:22:35.057Z,8.40
2019-05-14T19:25:02.369Z,8.30
2019-05-14T19:27:29.549Z,8.30
2019-05-14T19:29:59.062Z,8.30
2019-05-14T19:32:28.116Z,8.30
2019-05-14T19:34:55.065Z,8.20
2019-05-14T19:37:22.266Z,8.20
2019-05-14T19:39:49.465Z,8.10
2019-05-14T19:42:18.311Z,8.20
2019-05-14T19:44:48.117Z,8.10
2019-05-14T19:47:14.725Z,8.10
2019-05-14T19:49:41.948Z,8.10
2019-05-14T19:52:09.147Z,8.10
2019-05-14T19:54:38.247Z,8.10
2019-05-14T19:57:05.429Z,8.10
2019-05-14T19:59:32.636Z,8.10
2019-05-14T20:01:59.838Z,8.10
2019-05-14T20:04:29.141Z,8.10
2019-05-14T20:06:56.153Z,8.00
2019-05-14T20:09:23.364Z,8.00
2019-05-14T20:11:50.544Z,8.10
2019-05-14T20:14:17.737Z,8.10
2019-05-14T20:16:44.941Z,8.20
2019-05-14T20:19:12.158Z,8.20
2019-05-14T20:21:39.356Z,8.20
2019-05-14T20:24:06.557Z,8.20
2019-05-14T20:26:33.741Z,8.10
2019-05-14T20:29:00.929Z,8.10
2019-05-14T20:31:29.676Z,8.10
2019-05-14T20:33:59.126Z,8.00
2019-05-14T20:36:28.196Z,8.00
2019-05-14T20:38:55.590Z,8.00
2019-05-14T20:41:22.769Z,8.00
2019-05-14T20:43:49.956Z,8.00
2019-05-14T20:46:18.603Z,8.10
2019-05-14T20:48:46.123Z,8.00
2019-05-14T20:51:13.348Z,8.00
2019-05-14T20:53:40.529Z,8.00
2019-05-14T20:56:08.374Z,8.00
2019-05-14T20:58:35.708Z,8.10
2019-05-14T21:01:02.910Z,8.00
2019-05-14T21:03:30.089Z,7.90
2019-05-14T21:05:58.341Z,8.00
2019-05-14T21:08:27.957Z,7.90
2019-05-14T21:10:54.909Z,8.00
2019-05-14T21:13:22.093Z,8.00
2019-05-14T21:15:49.288Z,8.00
2019-05-14T21:18:18.763Z,8.00
2019-05-14T21:20:45.556Z,8.00
2019-05-14T21:23:12.768Z,8.10
2019-05-14T21:25:39.958Z,8.10
2019-05-14T21:28:09.101Z,8.10
2019-05-14T21:30:38.574Z,8.10
2019-05-14T21:33:05.332Z,8.00
2019-05-14T21:35:32.760Z,7.90
2019-05-14T21:38:00.038Z,8.00
2019-05-14T21:40:31.672Z,7.90
2019-05-14T21:42:56.692Z,8.00
2019-05-14T21:45:23.885Z,7.90
2019-05-14T21:47:51.156Z,8.00
2019-05-14T21:50:18.490Z,8.00
2019-05-14T21:52:45.673Z,7.90
2019-05-14T21:55:12.968Z,8.00
2019-05-14T21:57:53.491Z,8.00
2019-05-14T22:00:18.422Z,8.00
2019-05-14T22:02:44.968Z,8.00
2019-05-14T22:05:12.264Z,8.00
2019-05-14T22:07:39.464Z,8.10
2019-05-14T22:10:07.076Z,8.00
2019-05-14T22:12:34.307Z,7.90
2019-05-14T22:15:01.676Z,7.90
2019-05-14T22:17:28.848Z,7.80
2019-05-14T22:19:58.295Z,7.80
2019-05-14T22:22:25.136Z,7.80
2019-05-14T22:24:52.347Z,7.80
2019-05-14T22:27:19.554Z,7.90
2019-05-14T22:29:46.760Z,7.80
2019-05-14T22:32:13.993Z,7.80
2019-05-14T22:34:41.533Z,7.80
2019-05-14T22:37:08.906Z,7.90
2019-05-14T22:39:38.835Z,7.80
2019-05-14T22:42:05.201Z,7.80
2019-05-14T22:44:32.408Z,7.80
2019-05-14T22:46:59.588Z,7.80
2019-05-14T22:49:28.494Z,7.80
2019-05-14T22:51:55.906Z,7.80
2019-05-14T22:54:23.188Z,7.80
2019-05-14T22:56:50.385Z,7.80
2019-05-14T22:59:20.406Z,7.80
2019-05-14T23:01:48.023Z,7.80
2019-05-14T23:04:15.497Z,7.80
2019-05-14T23:06:42.714Z,7.80
2019-05-14T23:09:10.012Z,7.80
2019-05-14T23:11:38.500Z,7.80
2019-05-14T23:14:06.233Z,7.80
2019-05-14T23:16:38.077Z,7.80
2019-05-14T23:19:02.820Z,7.90
2019-05-14T23:21:30.116Z,7.80
2019-05-14T23:23:58.270Z,7.90
2019-05-14T23:26:25.632Z,7.90
2019-05-14T23:28:52.833Z,7.80
2019-05-14T23:31:20.020Z,7.80
2019-05-14T23:33:49.034Z,7.70
2019-05-14T23:36:18.315Z,7.70
2019-05-14T23:38:45.728Z,7.70
2019-05-14T23:41:12.936Z,7.70
2019-05-14T23:43:40.164Z,7.80
2019-05-14T23:46:09.435Z,7.70
2019-05-14T23:48:38.861Z,7.80
2019-05-14T23:51:07.948Z,7.90
2019-05-14T23:53:34.638Z,7.80
2019-05-14T23:56:01.841Z,7.80
2019-05-14T23:58:29.096Z,7.80
